sensor_id;sensor_type;location;lat;lon;timestamp;P1;durP1;ratioP1;P2;durP2;ratioP2
5898;SDS011;2975;50.956;6.962;2023-04-03T00:00:56;5.20;;;2.80;;
5898;SDS011;2975;50.956;6.962;2023-04-03T00:03:22;3.43;;;2.33;;
5898;SDS011;2975;50.956;6.962;2023-04-03T00:05:48;5.57;;;2.23;;
5898;SDS011;2975;50.956;6.962;2023-04-03T00:08:13;3.53;;;2.70;;
5898;SDS011;2975;50.956;6.962;2023-04-03T00:10:39;3.93;;;2.50;;
5898;SDS011;2975;50.956;6.962;2023-04-03T00:13:05;4.53;;;2.53;;
5898;SDS011;2975;50.956;6.962;2023-04-03T00:15:32;2.90;;;2.60;;
5898;SDS011;2975;50.956;6.962;2023-04-03T00:17:59;4.50;;;2.57;;
5898;SDS011;2975;50.956;6.962;2023-04-03T00:20:25;8.40;;;2.10;;
5898;SDS011;2975;50.956;6.962;2023-04-03T00:22:52;2.60;;;2.20;;
5898;SDS011;2975;50.956;6.962;2023-04-03T00:25:18;2.60;;;2.40;;
5898;SDS011;2975;50.956;6.962;2023-04-03T00:27:43;4.87;;;2.80;;
5898;SDS011;2975;50.956;6.962;2023-04-03T00:30:10;3.93;;;2.70;;
5898;SDS011;2975;50.956;6.962;2023-04-03T00:32:38;2.63;;;2.30;;
5898;SDS011;2975;50.956;6.962;2023-04-03T00:35:04;2.63;;;2.40;;
5898;SDS011;2975;50.956;6.962;2023-04-03T00:37:30;5.83;;;2.70;;
5898;SDS011;2975;50.956;6.962;2023-04-03T00:39:55;4.43;;;2.40;;
5898;SDS011;2975;50.956;6.962;2023-04-03T00:42:21;4.23;;;2.97;;
5898;SDS011;2975;50.956;6.962;2023-04-03T00:47:13;4.17;;;2.77;;
5898;SDS011;2975;50.956;6.962;2023-04-03T00:49:42;4.23;;;2.60;;
5898;SDS011;2975;50.956;6.962;2023-04-03T00:52:10;6.13;;;2.87;;
5898;SDS011;2975;50.956;6.962;2023-04-03T00:54:38;2.57;;;2.37;;
5898;SDS011;2975;50.956;6.962;2023-04-03T00:57:06;2.47;;;2.27;;
5898;SDS011;2975;50.956;6.962;2023-04-03T00:59:33;4.57;;;2.10;;
5898;SDS011;2975;50.956;6.962;2023-04-03T01:02:03;5.17;;;2.30;;
5898;SDS011;2975;50.956;6.962;2023-04-03T01:04:33;3.73;;;2.17;;
5898;SDS011;2975;50.956;6.962;2023-04-03T01:07:02;4.83;;;2.10;;
5898;SDS011;2975;50.956;6.962;2023-04-03T01:09:32;3.37;;;2.23;;
5898;SDS011;2975;50.956;6.962;2023-04-03T01:14:41;2.90;;;2.60;;
5898;SDS011;2975;50.956;6.962;2023-04-03T01:20:14;5.73;;;2.63;;
5898;SDS011;2975;50.956;6.962;2023-04-03T01:25:35;4.20;;;2.60;;
5898;SDS011;2975;50.956;6.962;2023-04-03T01:28:04;5.40;;;2.90;;
5898;SDS011;2975;50.956;6.962;2023-04-03T01:30:32;4.37;;;2.63;;
5898;SDS011;2975;50.956;6.962;2023-04-03T01:33:06;4.20;;;2.47;;
5898;SDS011;2975;50.956;6.962;2023-04-03T01:35:32;3.97;;;2.53;;
5898;SDS011;2975;50.956;6.962;2023-04-03T01:37:57;3.50;;;2.47;;
5898;SDS011;2975;50.956;6.962;2023-04-03T01:40:23;6.97;;;2.37;;
5898;SDS011;2975;50.956;6.962;2023-04-03T01:42:48;3.23;;;2.80;;
5898;SDS011;2975;50.956;6.962;2023-04-03T01:45:14;2.27;;;2.10;;
5898;SDS011;2975;50.956;6.962;2023-04-03T01:47:40;3.53;;;2.47;;
5898;SDS011;2975;50.956;6.962;2023-04-03T01:50:05;2.63;;;2.43;;
5898;SDS011;2975;50.956;6.962;2023-04-03T01:52:31;4.47;;;2.50;;
5898;SDS011;2975;50.956;6.962;2023-04-03T01:54:57;4.23;;;2.70;;
5898;SDS011;2975;50.956;6.962;2023-04-03T01:57:22;6.60;;;2.70;;
5898;SDS011;2975;50.956;6.962;2023-04-03T01:59:48;4.40;;;2.60;;
5898;SDS011;2975;50.956;6.962;2023-04-03T02:02:13;3.23;;;2.87;;
5898;SDS011;2975;50.956;6.962;2023-04-03T02:04:40;3.77;;;2.80;;
5898;SDS011;2975;50.956;6.962;2023-04-03T02:07:06;3.17;;;2.50;;
5898;SDS011;2975;50.956;6.962;2023-04-03T02:09:31;4.13;;;2.37;;
5898;SDS011;2975;50.956;6.962;2023-04-03T02:11:57;3.53;;;2.70;;
5898;SDS011;2975;50.956;6.962;2023-04-03T02:14:23;3.23;;;2.83;;
5898;SDS011;2975;50.956;6.962;2023-04-03T02:16:48;3.83;;;2.50;;
5898;SDS011;2975;50.956;6.962;2023-04-03T02:19:14;4.57;;;2.80;;
5898;SDS011;2975;50.956;6.962;2023-04-03T02:21:40;3.73;;;2.60;;
5898;SDS011;2975;50.956;6.962;2023-04-03T02:24:06;4.77;;;2.90;;
5898;SDS011;2975;50.956;6.962;2023-04-03T02:26:32;4.63;;;3.07;;
5898;SDS011;2975;50.956;6.962;2023-04-03T02:28:57;3.13;;;2.70;;
5898;SDS011;2975;50.956;6.962;2023-04-03T02:31:23;8.20;;;2.70;;
5898;SDS011;2975;50.956;6.962;2023-04-03T02:33:49;3.90;;;2.70;;
5898;SDS011;2975;50.956;6.962;2023-04-03T02:36:15;2.87;;;2.60;;
5898;SDS011;2975;50.956;6.962;2023-04-03T02:38:40;4.83;;;2.77;;
5898;SDS011;2975;50.956;6.962;2023-04-03T02:41:07;3.07;;;2.80;;
5898;SDS011;2975;50.956;6.962;2023-04-03T02:43:34;6.83;;;2.90;;
5898;SDS011;2975;50.956;6.962;2023-04-03T02:46:00;3.50;;;2.87;;
5898;SDS011;2975;50.956;6.962;2023-04-03T02:48:26;4.60;;;2.80;;
5898;SDS011;2975;50.956;6.962;2023-04-03T02:50:52;3.87;;;3.00;;
5898;SDS011;2975;50.956;6.962;2023-04-03T02:53:18;3.77;;;2.63;;
5898;SDS011;2975;50.956;6.962;2023-04-03T02:55:44;5.10;;;2.90;;
5898;SDS011;2975;50.956;6.962;2023-04-03T02:58:10;2.97;;;2.70;;
5898;SDS011;2975;50.956;6.962;2023-04-03T03:00:36;3.23;;;2.93;;
5898;SDS011;2975;50.956;6.962;2023-04-03T03:03:03;5.90;;;3.20;;
5898;SDS011;2975;50.956;6.962;2023-04-03T03:05:29;3.30;;;3.00;;
5898;SDS011;2975;50.956;6.962;2023-04-03T03:07:55;4.37;;;2.80;;
5898;SDS011;2975;50.956;6.962;2023-04-03T03:10:21;4.10;;;2.73;;
5898;SDS011;2975;50.956;6.962;2023-04-03T03:12:48;4.10;;;2.70;;
5898;SDS011;2975;50.956;6.962;2023-04-03T03:15:14;4.33;;;2.40;;
5898;SDS011;2975;50.956;6.962;2023-04-03T03:17:42;2.93;;;2.30;;
5898;SDS011;2975;50.956;6.962;2023-04-03T03:20:08;8.10;;;3.03;;
5898;SDS011;2975;50.956;6.962;2023-04-03T03:22:34;3.80;;;2.53;;
5898;SDS011;2975;50.956;6.962;2023-04-03T03:25:00;2.80;;;2.23;;
5898;SDS011;2975;50.956;6.962;2023-04-03T03:27:27;4.53;;;2.53;;
5898;SDS011;2975;50.956;6.962;2023-04-03T03:29:52;2.80;;;2.27;;
5898;SDS011;2975;50.956;6.962;2023-04-03T03:32:18;4.37;;;2.40;;
5898;SDS011;2975;50.956;6.962;2023-04-03T03:34:44;4.83;;;2.20;;
5898;SDS011;2975;50.956;6.962;2023-04-03T03:37:10;4.27;;;2.30;;
5898;SDS011;2975;50.956;6.962;2023-04-03T03:39:35;2.30;;;2.10;;
5898;SDS011;2975;50.956;6.962;2023-04-03T03:42:01;3.07;;;2.43;;
5898;SDS011;2975;50.956;6.962;2023-04-03T03:44:26;4.97;;;2.20;;
5898;SDS011;2975;50.956;6.962;2023-04-03T03:46:54;2.60;;;1.90;;
5898;SDS011;2975;50.956;6.962;2023-04-03T03:49:20;2.47;;;2.13;;
5898;SDS011;2975;50.956;6.962;2023-04-03T03:51:46;2.57;;;2.00;;
5898;SDS011;2975;50.956;6.962;2023-04-03T03:54:11;4.77;;;2.23;;
5898;SDS011;2975;50.956;6.962;2023-04-03T03:56:37;2.07;;;1.87;;
5898;SDS011;2975;50.956;6.962;2023-04-03T03:59:03;3.10;;;1.80;;
5898;SDS011;2975;50.956;6.962;2023-04-03T04:01:28;4.47;;;2.30;;
5898;SDS011;2975;50.956;6.962;2023-04-03T04:03:54;3.80;;;2.30;;
5898;SDS011;2975;50.956;6.962;2023-04-03T04:06:20;4.00;;;2.43;;
5898;SDS011;2975;50.956;6.962;2023-04-03T04:08:46;2.43;;;1.80;;
5898;SDS011;2975;50.956;6.962;2023-04-03T04:11:12;2.23;;;2.03;;
5898;SDS011;2975;50.956;6.962;2023-04-03T04:13:37;3.10;;;1.83;;
5898;SDS011;2975;50.956;6.962;2023-04-03T04:16:03;4.37;;;2.00;;
5898;SDS011;2975;50.956;6.962;2023-04-03T04:18:29;3.60;;;1.90;;
5898;SDS011;2975;50.956;6.962;2023-04-03T04:20:55;5.63;;;1.80;;
5898;SDS011;2975;50.956;6.962;2023-04-03T04:23:20;5.70;;;2.07;;
5898;SDS011;2975;50.956;6.962;2023-04-03T04:25:46;4.43;;;1.67;;
5898;SDS011;2975;50.956;6.962;2023-04-03T04:28:13;7.83;;;1.90;;
5898;SDS011;2975;50.956;6.962;2023-04-03T04:30:39;3.27;;;1.87;;
5898;SDS011;2975;50.956;6.962;2023-04-03T04:33:05;4.23;;;2.03;;
5898;SDS011;2975;50.956;6.962;2023-04-03T04:35:31;3.47;;;1.80;;
5898;SDS011;2975;50.956;6.962;2023-04-03T04:37:57;1.43;;;1.33;;
5898;SDS011;2975;50.956;6.962;2023-04-03T04:40:23;5.07;;;1.73;;
5898;SDS011;2975;50.956;6.962;2023-04-03T04:42:48;3.67;;;1.50;;
5898;SDS011;2975;50.956;6.962;2023-04-03T04:45:14;4.93;;;1.80;;
5898;SDS011;2975;50.956;6.962;2023-04-03T04:47:40;2.17;;;1.50;;
5898;SDS011;2975;50.956;6.962;2023-04-03T04:50:06;3.73;;;1.80;;
5898;SDS011;2975;50.956;6.962;2023-04-03T04:52:32;3.63;;;1.53;;
5898;SDS011;2975;50.956;6.962;2023-04-03T04:54:58;7.37;;;1.90;;
5898;SDS011;2975;50.956;6.962;2023-04-03T04:57:23;4.47;;;1.90;;
5898;SDS011;2975;50.956;6.962;2023-04-03T04:59:49;3.23;;;1.70;;
5898;SDS011;2975;50.956;6.962;2023-04-03T05:02:14;3.90;;;1.70;;
5898;SDS011;2975;50.956;6.962;2023-04-03T05:04:40;3.27;;;1.50;;
5898;SDS011;2975;50.956;6.962;2023-04-03T05:07:06;3.53;;;1.70;;
5898;SDS011;2975;50.956;6.962;2023-04-03T05:09:31;1.47;;;1.30;;
5898;SDS011;2975;50.956;6.962;2023-04-03T05:11:57;2.53;;;1.83;;
5898;SDS011;2975;50.956;6.962;2023-04-03T05:14:23;2.70;;;1.97;;
5898;SDS011;2975;50.956;6.962;2023-04-03T05:16:49;8.60;;;2.17;;
5898;SDS011;2975;50.956;6.962;2023-04-03T05:19:19;5.33;;;1.60;;
5898;SDS011;2975;50.956;6.962;2023-04-03T05:21:47;3.93;;;1.80;;
5898;SDS011;2975;50.956;6.962;2023-04-03T05:24:14;2.47;;;1.60;;
5898;SDS011;2975;50.956;6.962;2023-04-03T05:26:40;4.20;;;1.70;;
5898;SDS011;2975;50.956;6.962;2023-04-03T05:29:06;3.33;;;1.70;;
5898;SDS011;2975;50.956;6.962;2023-04-03T05:31:32;4.13;;;1.90;;
5898;SDS011;2975;50.956;6.962;2023-04-03T05:33:57;3.47;;;1.97;;
5898;SDS011;2975;50.956;6.962;2023-04-03T05:36:23;2.47;;;1.70;;
5898;SDS011;2975;50.956;6.962;2023-04-03T05:38:48;4.77;;;1.60;;
5898;SDS011;2975;50.956;6.962;2023-04-03T05:41:14;3.17;;;1.80;;
5898;SDS011;2975;50.956;6.962;2023-04-03T05:43:41;3.10;;;1.50;;
5898;SDS011;2975;50.956;6.962;2023-04-03T05:46:09;5.60;;;1.57;;
5898;SDS011;2975;50.956;6.962;2023-04-03T05:48:36;4.77;;;1.90;;
5898;SDS011;2975;50.956;6.962;2023-04-03T05:51:02;5.07;;;1.87;;
5898;SDS011;2975;50.956;6.962;2023-04-03T05:53:28;2.40;;;1.70;;
5898;SDS011;2975;50.956;6.962;2023-04-03T05:55:56;3.43;;;1.40;;
5898;SDS011;2975;50.956;6.962;2023-04-03T05:58:22;3.00;;;1.33;;
5898;SDS011;2975;50.956;6.962;2023-04-03T06:00:48;3.70;;;2.00;;
5898;SDS011;2975;50.956;6.962;2023-04-03T06:03:14;4.37;;;1.87;;
5898;SDS011;2975;50.956;6.962;2023-04-03T06:05:40;3.90;;;1.87;;
5898;SDS011;2975;50.956;6.962;2023-04-03T06:08:06;4.17;;;1.67;;
5898;SDS011;2975;50.956;6.962;2023-04-03T06:10:32;4.27;;;1.70;;
5898;SDS011;2975;50.956;6.962;2023-04-03T06:12:57;3.30;;;1.73;;
5898;SDS011;2975;50.956;6.962;2023-04-03T06:15:23;2.87;;;1.23;;
5898;SDS011;2975;50.956;6.962;2023-04-03T06:17:49;3.00;;;1.30;;
5898;SDS011;2975;50.956;6.962;2023-04-03T06:20:16;4.03;;;1.90;;
5898;SDS011;2975;50.956;6.962;2023-04-03T06:22:41;3.63;;;1.73;;
5898;SDS011;2975;50.956;6.962;2023-04-03T06:25:07;2.23;;;1.50;;
5898;SDS011;2975;50.956;6.962;2023-04-03T06:27:34;3.90;;;1.57;;
5898;SDS011;2975;50.956;6.962;2023-04-03T06:30:00;1.50;;;1.40;;
5898;SDS011;2975;50.956;6.962;2023-04-03T06:32:26;2.73;;;1.57;;
5898;SDS011;2975;50.956;6.962;2023-04-03T06:34:51;2.90;;;1.47;;
5898;SDS011;2975;50.956;6.962;2023-04-03T06:37:19;4.87;;;1.90;;
5898;SDS011;2975;50.956;6.962;2023-04-03T06:39:46;3.03;;;1.50;;
5898;SDS011;2975;50.956;6.962;2023-04-03T06:42:12;2.60;;;1.80;;
5898;SDS011;2975;50.956;6.962;2023-04-03T06:44:38;5.20;;;1.47;;
5898;SDS011;2975;50.956;6.962;2023-04-03T06:47:04;5.13;;;1.70;;
5898;SDS011;2975;50.956;6.962;2023-04-03T06:49:30;4.97;;;1.77;;
5898;SDS011;2975;50.956;6.962;2023-04-03T06:51:56;4.63;;;1.53;;
5898;SDS011;2975;50.956;6.962;2023-04-03T06:54:22;4.10;;;1.60;;
5898;SDS011;2975;50.956;6.962;2023-04-03T06:56:48;3.70;;;1.60;;
5898;SDS011;2975;50.956;6.962;2023-04-03T06:59:14;4.80;;;1.93;;
5898;SDS011;2975;50.956;6.962;2023-04-03T07:01:40;4.40;;;1.50;;
5898;SDS011;2975;50.956;6.962;2023-04-03T07:04:07;4.37;;;1.50;;
5898;SDS011;2975;50.956;6.962;2023-04-03T07:06:33;2.07;;;1.40;;
5898;SDS011;2975;50.956;6.962;2023-04-03T07:08:59;4.83;;;1.63;;
5898;SDS011;2975;50.956;6.962;2023-04-03T07:11:25;3.67;;;1.33;;
5898;SDS011;2975;50.956;6.962;2023-04-03T07:13:51;2.80;;;1.30;;
5898;SDS011;2975;50.956;6.962;2023-04-03T07:16:19;5.10;;;1.93;;
5898;SDS011;2975;50.956;6.962;2023-04-03T07:18:45;3.53;;;1.33;;
5898;SDS011;2975;50.956;6.962;2023-04-03T07:21:11;3.57;;;1.40;;
5898;SDS011;2975;50.956;6.962;2023-04-03T07:23:37;4.90;;;1.30;;
5898;SDS011;2975;50.956;6.962;2023-04-03T07:26:03;5.13;;;1.43;;
5898;SDS011;2975;50.956;6.962;2023-04-03T07:28:29;3.77;;;1.30;;
5898;SDS011;2975;50.956;6.962;2023-04-03T07:31:02;1.77;;;0.97;;
5898;SDS011;2975;50.956;6.962;2023-04-03T07:33:31;5.80;;;1.80;;
5898;SDS011;2975;50.956;6.962;2023-04-03T07:35:57;2.00;;;1.10;;
5898;SDS011;2975;50.956;6.962;2023-04-03T07:38:23;4.73;;;1.90;;
5898;SDS011;2975;50.956;6.962;2023-04-03T07:40:49;3.60;;;1.40;;
5898;SDS011;2975;50.956;6.962;2023-04-03T07:43:15;5.47;;;1.63;;
5898;SDS011;2975;50.956;6.962;2023-04-03T07:45:42;4.60;;;1.30;;
5898;SDS011;2975;50.956;6.962;2023-04-03T07:48:09;1.87;;;1.03;;
5898;SDS011;2975;50.956;6.962;2023-04-03T07:50:39;1.67;;;1.13;;
5898;SDS011;2975;50.956;6.962;2023-04-03T07:53:05;2.70;;;1.40;;
5898;SDS011;2975;50.956;6.962;2023-04-03T07:55:31;3.10;;;1.70;;
5898;SDS011;2975;50.956;6.962;2023-04-03T07:57:57;5.03;;;1.47;;
5898;SDS011;2975;50.956;6.962;2023-04-03T08:00:23;2.20;;;1.43;;
5898;SDS011;2975;50.956;6.962;2023-04-03T08:02:49;4.47;;;1.40;;
5898;SDS011;2975;50.956;6.962;2023-04-03T08:05:17;3.77;;;1.20;;
5898;SDS011;2975;50.956;6.962;2023-04-03T08:07:43;5.97;;;1.53;;
5898;SDS011;2975;50.956;6.962;2023-04-03T08:10:09;3.10;;;1.27;;
5898;SDS011;2975;50.956;6.962;2023-04-03T08:12:35;5.67;;;1.50;;
5898;SDS011;2975;50.956;6.962;2023-04-03T08:15:02;3.57;;;1.20;;
5898;SDS011;2975;50.956;6.962;2023-04-03T08:17:28;2.40;;;1.23;;
5898;SDS011;2975;50.956;6.962;2023-04-03T08:19:54;1.80;;;1.13;;
5898;SDS011;2975;50.956;6.962;2023-04-03T08:22:20;1.30;;;1.10;;
5898;SDS011;2975;50.956;6.962;2023-04-03T08:24:45;1.97;;;1.17;;
5898;SDS011;2975;50.956;6.962;2023-04-03T08:27:11;3.93;;;1.10;;
5898;SDS011;2975;50.956;6.962;2023-04-03T08:29:37;4.57;;;1.60;;
5898;SDS011;2975;50.956;6.962;2023-04-03T08:32:03;1.97;;;1.33;;
5898;SDS011;2975;50.956;6.962;2023-04-03T08:34:30;3.37;;;1.87;;
5898;SDS011;2975;50.956;6.962;2023-04-03T08:36:59;1.07;;;0.93;;
5898;SDS011;2975;50.956;6.962;2023-04-03T08:39:25;4.37;;;1.67;;
5898;SDS011;2975;50.956;6.962;2023-04-03T08:41:51;3.63;;;1.20;;
5898;SDS011;2975;50.956;6.962;2023-04-03T08:50:39;4.50;;;1.20;;
5898;SDS011;2975;50.956;6.962;2023-04-03T08:53:15;3.70;;;1.30;;
5898;SDS011;2975;50.956;6.962;2023-04-03T08:55:47;1.93;;;1.30;;
5898;SDS011;2975;50.956;6.962;2023-04-03T08:58:16;4.13;;;1.33;;
5898;SDS011;2975;50.956;6.962;2023-04-03T09:03:14;5.03;;;1.30;;
5898;SDS011;2975;50.956;6.962;2023-04-03T09:05:44;1.77;;;1.10;;
5898;SDS011;2975;50.956;6.962;2023-04-03T09:10:52;2.57;;;0.77;;
5898;SDS011;2975;50.956;6.962;2023-04-03T09:14:12;2.87;;;1.07;;
5898;SDS011;2975;50.956;6.962;2023-04-03T09:16:28;3.17;;;0.97;;
5898;SDS011;2975;50.956;6.962;2023-04-03T09:19:07;2.73;;;1.00;;
5898;SDS011;2975;50.956;6.962;2023-04-03T09:22:17;3.73;;;0.90;;
5898;SDS011;2975;50.956;6.962;2023-04-03T09:27:32;2.07;;;1.10;;
5898;SDS011;2975;50.956;6.962;2023-04-03T09:29:58;5.33;;;1.50;;
5898;SDS011;2975;50.956;6.962;2023-04-03T09:34:58;1.00;;;0.93;;
5898;SDS011;2975;50.956;6.962;2023-04-03T09:38:02;2.87;;;1.23;;
5898;SDS011;2975;50.956;6.962;2023-04-03T09:40:43;0.80;;;0.80;;
5898;SDS011;2975;50.956;6.962;2023-04-03T09:45:43;1.67;;;1.10;;
5898;SDS011;2975;50.956;6.962;2023-04-03T09:56:04;2.63;;;0.93;;
5898;SDS011;2975;50.956;6.962;2023-04-03T09:58:43;0.90;;;0.90;;
5898;SDS011;2975;50.956;6.962;2023-04-03T10:01:32;1.07;;;1.00;;
5898;SDS011;2975;50.956;6.962;2023-04-03T10:04:06;1.10;;;0.80;;
5898;SDS011;2975;50.956;6.962;2023-04-03T10:06:40;2.07;;;0.67;;
5898;SDS011;2975;50.956;6.962;2023-04-03T10:14:29;0.80;;;0.77;;
5898;SDS011;2975;50.956;6.962;2023-04-03T10:17:03;0.97;;;0.80;;
5898;SDS011;2975;50.956;6.962;2023-04-03T10:22:21;1.43;;;1.00;;
5898;SDS011;2975;50.956;6.962;2023-04-03T10:25:12;0.93;;;0.80;;
5898;SDS011;2975;50.956;6.962;2023-04-03T10:35:52;2.10;;;1.00;;
5898;SDS011;2975;50.956;6.962;2023-04-03T10:44:26;1.03;;;0.90;;
5898;SDS011;2975;50.956;6.962;2023-04-03T10:47:20;2.17;;;0.87;;
5898;SDS011;2975;50.956;6.962;2023-04-03T10:49:59;1.60;;;1.07;;
5898;SDS011;2975;50.956;6.962;2023-04-03T10:55:38;1.97;;;0.80;;
5898;SDS011;2975;50.956;6.962;2023-04-03T11:01:19;2.23;;;1.00;;
5898;SDS011;2975;50.956;6.962;2023-04-03T11:03:50;2.10;;;0.80;;
5898;SDS011;2975;50.956;6.962;2023-04-03T11:06:19;2.97;;;1.00;;
5898;SDS011;2975;50.956;6.962;2023-04-03T11:11:47;1.50;;;0.73;;
5898;SDS011;2975;50.956;6.962;2023-04-03T11:14:32;2.10;;;0.80;;
5898;SDS011;2975;50.956;6.962;2023-04-03T11:25:36;4.50;;;0.97;;
5898;SDS011;2975;50.956;6.962;2023-04-03T11:28:09;1.13;;;0.80;;
5898;SDS011;2975;50.956;6.962;2023-04-03T11:35:52;2.40;;;0.90;;
5898;SDS011;2975;50.956;6.962;2023-04-03T11:38:43;2.77;;;1.70;;
5898;SDS011;2975;50.956;6.962;2023-04-03T11:41:09;1.90;;;0.97;;
5898;SDS011;2975;50.956;6.962;2023-04-03T11:43:40;3.30;;;1.33;;
5898;SDS011;2975;50.956;6.962;2023-04-03T11:46:08;2.00;;;0.90;;
5898;SDS011;2975;50.956;6.962;2023-04-03T11:53:28;3.13;;;0.90;;
5898;SDS011;2975;50.956;6.962;2023-04-03T11:58:30;1.30;;;0.63;;
5898;SDS011;2975;50.956;6.962;2023-04-03T12:01:00;0.93;;;0.60;;
5898;SDS011;2975;50.956;6.962;2023-04-03T12:16:29;1.57;;;0.67;;
5898;SDS011;2975;50.956;6.962;2023-04-03T12:19:03;2.30;;;0.90;;
5898;SDS011;2975;50.956;6.962;2023-04-03T12:46:52;3.50;;;0.90;;
5898;SDS011;2975;50.956;6.962;2023-04-03T12:49:26;1.83;;;1.00;;
5898;SDS011;2975;50.956;6.962;2023-04-03T12:51:58;3.77;;;0.80;;
5898;SDS011;2975;50.956;6.962;2023-04-03T12:54:57;0.80;;;0.80;;
5898;SDS011;2975;50.956;6.962;2023-04-03T12:57:25;2.07;;;0.67;;
5898;SDS011;2975;50.956;6.962;2023-04-03T12:59:55;1.03;;;0.67;;
5898;SDS011;2975;50.956;6.962;2023-04-03T13:02:26;1.83;;;0.60;;
5898;SDS011;2975;50.956;6.962;2023-04-03T13:04:57;10.10;;;1.70;;
5898;SDS011;2975;50.956;6.962;2023-04-03T13:07:25;1.23;;;1.03;;
5898;SDS011;2975;50.956;6.962;2023-04-03T13:10:01;1.33;;;0.60;;
5898;SDS011;2975;50.956;6.962;2023-04-03T13:12:30;0.80;;;0.80;;
5898;SDS011;2975;50.956;6.962;2023-04-03T13:14:57;1.17;;;0.77;;
5898;SDS011;2975;50.956;6.962;2023-04-03T13:17:26;2.10;;;0.70;;
5898;SDS011;2975;50.956;6.962;2023-04-03T13:19:52;1.00;;;0.83;;
5898;SDS011;2975;50.956;6.962;2023-04-03T13:25:08;2.63;;;0.90;;
5898;SDS011;2975;50.956;6.962;2023-04-03T13:27:38;0.73;;;0.73;;
5898;SDS011;2975;50.956;6.962;2023-04-03T13:30:17;1.77;;;0.70;;
5898;SDS011;2975;50.956;6.962;2023-04-03T13:32:48;1.17;;;0.70;;
5898;SDS011;2975;50.956;6.962;2023-04-03T13:35:30;0.60;;;0.60;;
5898;SDS011;2975;50.956;6.962;2023-04-03T13:37:57;1.57;;;0.80;;
5898;SDS011;2975;50.956;6.962;2023-04-03T13:40:25;2.33;;;0.90;;
5898;SDS011;2975;50.956;6.962;2023-04-03T13:43:02;1.53;;;0.90;;
5898;SDS011;2975;50.956;6.962;2023-04-03T13:45:42;1.60;;;0.70;;
5898;SDS011;2975;50.956;6.962;2023-04-03T13:48:34;2.30;;;0.90;;
5898;SDS011;2975;50.956;6.962;2023-04-03T13:53:42;0.70;;;0.70;;
5898;SDS011;2975;50.956;6.962;2023-04-03T13:56:53;2.47;;;1.00;;
5898;SDS011;2975;50.956;6.962;2023-04-03T14:01:43;2.67;;;1.00;;
5898;SDS011;2975;50.956;6.962;2023-04-03T14:04:50;2.80;;;1.20;;
5898;SDS011;2975;50.956;6.962;2023-04-03T14:07:21;12.07;;;1.40;;
5898;SDS011;2975;50.956;6.962;2023-04-03T14:09:47;1.37;;;0.90;;
5898;SDS011;2975;50.956;6.962;2023-04-03T14:12:15;1.00;;;0.70;;
5898;SDS011;2975;50.956;6.962;2023-04-03T14:14:49;1.87;;;1.00;;
5898;SDS011;2975;50.956;6.962;2023-04-03T14:17:19;2.13;;;1.07;;
5898;SDS011;2975;50.956;6.962;2023-04-03T14:19:47;1.13;;;0.90;;
5898;SDS011;2975;50.956;6.962;2023-04-03T14:24:46;1.33;;;0.80;;
5898;SDS011;2975;50.956;6.962;2023-04-03T14:27:22;1.10;;;1.00;;
5898;SDS011;2975;50.956;6.962;2023-04-03T14:29:58;2.87;;;0.83;;
5898;SDS011;2975;50.956;6.962;2023-04-03T14:32:24;0.83;;;0.70;;
5898;SDS011;2975;50.956;6.962;2023-04-03T14:34:51;1.03;;;0.90;;
5898;SDS011;2975;50.956;6.962;2023-04-03T14:37:21;0.90;;;0.77;;
5898;SDS011;2975;50.956;6.962;2023-04-03T14:39:49;1.27;;;0.80;;
5898;SDS011;2975;50.956;6.962;2023-04-03T14:42:16;1.37;;;1.10;;
5898;SDS011;2975;50.956;6.962;2023-04-03T14:44:47;1.33;;;1.10;;
5898;SDS011;2975;50.956;6.962;2023-04-03T14:47:14;4.97;;;0.90;;
5898;SDS011;2975;50.956;6.962;2023-04-03T14:49:41;1.33;;;1.23;;
5898;SDS011;2975;50.956;6.962;2023-04-03T14:52:21;1.43;;;0.90;;
5898;SDS011;2975;50.956;6.962;2023-04-03T14:54:59;1.17;;;0.90;;
5898;SDS011;2975;50.956;6.962;2023-04-03T14:57:26;2.13;;;0.70;;
5898;SDS011;2975;50.956;6.962;2023-04-03T14:59:53;1.00;;;0.80;;
5898;SDS011;2975;50.956;6.962;2023-04-03T15:02:26;3.50;;;1.03;;
5898;SDS011;2975;50.956;6.962;2023-04-03T15:04:57;1.00;;;0.90;;
5898;SDS011;2975;50.956;6.962;2023-04-03T15:07:24;1.27;;;0.70;;
5898;SDS011;2975;50.956;6.962;2023-04-03T15:09:52;2.47;;;0.97;;
5898;SDS011;2975;50.956;6.962;2023-04-03T15:12:17;3.53;;;1.00;;
5898;SDS011;2975;50.956;6.962;2023-04-03T15:14:43;1.40;;;0.80;;
5898;SDS011;2975;50.956;6.962;2023-04-03T15:17:13;1.77;;;1.00;;
5898;SDS011;2975;50.956;6.962;2023-04-03T15:19:41;1.30;;;1.10;;
5898;SDS011;2975;50.956;6.962;2023-04-03T15:22:09;1.97;;;0.90;;
5898;SDS011;2975;50.956;6.962;2023-04-03T15:24:39;3.90;;;1.13;;
5898;SDS011;2975;50.956;6.962;2023-04-03T15:27:05;2.73;;;0.77;;
5898;SDS011;2975;50.956;6.962;2023-04-03T15:29:31;1.33;;;0.93;;
5898;SDS011;2975;50.956;6.962;2023-04-03T15:31:56;3.03;;;1.00;;
5898;SDS011;2975;50.956;6.962;2023-04-03T15:34:22;1.33;;;0.80;;
5898;SDS011;2975;50.956;6.962;2023-04-03T15:36:47;1.90;;;0.70;;
5898;SDS011;2975;50.956;6.962;2023-04-03T15:39:13;0.70;;;0.70;;
5898;SDS011;2975;50.956;6.962;2023-04-03T15:41:41;1.37;;;1.00;;
5898;SDS011;2975;50.956;6.962;2023-04-03T15:44:07;1.07;;;0.80;;
5898;SDS011;2975;50.956;6.962;2023-04-03T15:46:32;4.77;;;1.00;;
5898;SDS011;2975;50.956;6.962;2023-04-03T15:48:58;3.53;;;0.90;;
5898;SDS011;2975;50.956;6.962;2023-04-03T15:51:23;2.33;;;0.80;;
5898;SDS011;2975;50.956;6.962;2023-04-03T15:53:49;2.73;;;1.30;;
5898;SDS011;2975;50.956;6.962;2023-04-03T15:56:15;2.50;;;0.90;;
5898;SDS011;2975;50.956;6.962;2023-04-03T15:58:40;1.63;;;1.17;;
5898;SDS011;2975;50.956;6.962;2023-04-03T16:01:08;1.27;;;0.90;;
5898;SDS011;2975;50.956;6.962;2023-04-03T16:03:36;2.10;;;1.10;;
5898;SDS011;2975;50.956;6.962;2023-04-03T16:06:03;1.83;;;1.30;;
5898;SDS011;2975;50.956;6.962;2023-04-03T16:08:29;3.47;;;1.20;;
5898;SDS011;2975;50.956;6.962;2023-04-03T16:10:55;1.30;;;0.70;;
5898;SDS011;2975;50.956;6.962;2023-04-03T16:13:20;1.87;;;1.00;;
5898;SDS011;2975;50.956;6.962;2023-04-03T16:15:46;2.23;;;1.00;;
5898;SDS011;2975;50.956;6.962;2023-04-03T16:18:13;2.83;;;1.10;;
5898;SDS011;2975;50.956;6.962;2023-04-03T16:20:39;1.50;;;0.93;;
5898;SDS011;2975;50.956;6.962;2023-04-03T16:23:05;2.63;;;1.10;;
5898;SDS011;2975;50.956;6.962;2023-04-03T16:25:31;2.23;;;1.50;;
5898;SDS011;2975;50.956;6.962;2023-04-03T16:27:56;3.73;;;1.67;;
5898;SDS011;2975;50.956;6.962;2023-04-03T16:30:22;3.53;;;0.90;;
5898;SDS011;2975;50.956;6.962;2023-04-03T16:32:48;1.17;;;0.90;;
5898;SDS011;2975;50.956;6.962;2023-04-03T16:35:14;2.03;;;0.90;;
5898;SDS011;2975;50.956;6.962;2023-04-03T16:37:40;2.40;;;1.00;;
5898;SDS011;2975;50.956;6.962;2023-04-03T16:40:06;1.87;;;1.50;;
5898;SDS011;2975;50.956;6.962;2023-04-03T16:42:32;1.47;;;1.00;;
5898;SDS011;2975;50.956;6.962;2023-04-03T16:44:58;2.73;;;1.20;;
5898;SDS011;2975;50.956;6.962;2023-04-03T16:47:26;2.40;;;1.30;;
5898;SDS011;2975;50.956;6.962;2023-04-03T16:49:51;1.17;;;0.83;;
5898;SDS011;2975;50.956;6.962;2023-04-03T16:52:17;1.70;;;0.90;;
5898;SDS011;2975;50.956;6.962;2023-04-03T16:54:42;4.33;;;0.80;;
5898;SDS011;2975;50.956;6.962;2023-04-03T16:57:08;1.80;;;1.30;;
5898;SDS011;2975;50.956;6.962;2023-04-03T16:59:33;2.07;;;0.80;;
5898;SDS011;2975;50.956;6.962;2023-04-03T17:01:59;3.60;;;0.97;;
5898;SDS011;2975;50.956;6.962;2023-04-03T17:04:25;1.70;;;0.80;;
5898;SDS011;2975;50.956;6.962;2023-04-03T17:06:51;1.77;;;0.87;;
5898;SDS011;2975;50.956;6.962;2023-04-03T17:09:16;2.10;;;1.00;;
5898;SDS011;2975;50.956;6.962;2023-04-03T17:11:42;1.37;;;1.00;;
5898;SDS011;2975;50.956;6.962;2023-04-03T17:14:08;2.40;;;1.10;;
5898;SDS011;2975;50.956;6.962;2023-04-03T17:16:34;3.37;;;0.80;;
5898;SDS011;2975;50.956;6.962;2023-04-03T17:19:02;3.93;;;0.93;;
5898;SDS011;2975;50.956;6.962;2023-04-03T17:21:28;3.37;;;1.00;;
5898;SDS011;2975;50.956;6.962;2023-04-03T17:23:55;3.27;;;1.27;;
5898;SDS011;2975;50.956;6.962;2023-04-03T17:26:25;2.53;;;1.23;;
5898;SDS011;2975;50.956;6.962;2023-04-03T17:28:51;2.77;;;1.03;;
5898;SDS011;2975;50.956;6.962;2023-04-03T17:31:17;2.73;;;0.83;;
5898;SDS011;2975;50.956;6.962;2023-04-03T17:33:43;4.33;;;1.77;;
5898;SDS011;2975;50.956;6.962;2023-04-03T17:36:09;1.23;;;1.03;;
5898;SDS011;2975;50.956;6.962;2023-04-03T17:38:35;2.10;;;0.90;;
5898;SDS011;2975;50.956;6.962;2023-04-03T17:41:02;11.30;;;5.87;;